createdAt,value
2023-04-30T00:01:11.472Z,12.70
2023-04-30T00:03:59.681Z,12.70
2023-04-30T00:06:47.220Z,12.60
2023-04-30T00:09:35.090Z,12.60
2023-04-30T00:12:23.082Z,12.60
2023-04-30T00:15:11.629Z,12.40
2023-04-30T00:17:59.175Z,12.50
2023-04-30T00:20:46.557Z,12.70
2023-04-30T00:23:34.048Z,12.70
2023-04-30T00:26:21.501Z,12.70
2023-04-30T00:29:08.950Z,12.70
2023-04-30T00:31:56.462Z,12.60
2023-04-30T00:34:43.944Z,12.70
2023-04-30T00:37:32.179Z,12.50
2023-04-30T00:40:20.867Z,12.30
2023-04-30T00:43:08.338Z,12.20
2023-04-30T00:45:55.956Z,12.00
2023-04-30T00:48:43.512Z,11.70
2023-04-30T00:51:35.116Z,11.60
2023-04-30T00:54:24.431Z,11.50
2023-04-30T00:57:16.556Z,11.30
2023-04-30T01:00:05.432Z,11.20
2023-04-30T01:02:53.508Z,11.20
2023-04-30T01:05:41.489Z,11.10
2023-04-30T01:08:32.037Z,11.00
2023-04-30T01:11:35.088Z,10.80
2023-04-30T01:14:31.143Z,10.70
2023-04-30T01:17:30.988Z,10.70
2023-04-30T01:20:21.038Z,10.50
2023-04-30T01:23:27.839Z,10.20
2023-04-30T01:26:43.344Z,10.10
2023-04-30T01:29:36.660Z,10.20
2023-04-30T01:32:27.526Z,10.10
2023-04-30T01:35:16.241Z,10.00
2023-04-30T01:38:22.117Z,10.10
2023-04-30T01:41:24.784Z,9.90
2023-04-30T01:44:31.163Z,9.80
2023-04-30T01:47:27.774Z,9.70
2023-04-30T01:50:48.409Z,9.70
2023-04-30T01:53:46.388Z,9.60
2023-04-30T01:56:43.778Z,9.50
2023-04-30T01:59:50.638Z,9.40
2023-04-30T02:02:40.307Z,9.20
2023-04-30T02:05:29.447Z,9.00
2023-04-30T02:08:33.250Z,8.80
2023-04-30T02:11:21.102Z,8.80
2023-04-30T02:14:11.683Z,8.80
2023-04-30T02:17:01.964Z,8.60
2023-04-30T02:19:49.606Z,8.50
2023-04-30T02:22:37.770Z,8.60
2023-04-30T02:25:26.496Z,8.50
2023-04-30T02:28:17.103Z,8.50
2023-04-30T02:31:07.456Z,8.50
2023-04-30T02:33:57.482Z,8.50
2023-04-30T02:36:48.262Z,8.40
2023-04-30T02:39:36.667Z,8.40
2023-04-30T02:42:24.430Z,8.40
2023-04-30T02:45:14.956Z,8.50
2023-04-30T02:48:08.788Z,8.60
2023-04-30T02:50:59.403Z,8.60
2023-04-30T02:53:47.518Z,8.80
2023-04-30T02:56:39.622Z,8.70
2023-04-30T02:59:27.573Z,8.70
2023-04-30T03:02:22.801Z,8.60
2023-04-30T03:05:14.284Z,8.70
2023-04-30T03:08:01.993Z,8.80
2023-04-30T03:10:49.734Z,9.00
2023-04-30T03:13:37.743Z,9.00
2023-04-30T03:16:27.952Z,9.10
2023-04-30T03:19:16.018Z,9.30
2023-04-30T03:22:04.335Z,9.40
2023-04-30T03:24:58.378Z,9.30
2023-04-30T03:27:49.342Z,9.40
2023-04-30T03:30:39.960Z,9.40
2023-04-30T03:33:28.512Z,9.40
2023-04-30T03:36:22.032Z,9.30
2023-04-30T03:39:22.821Z,9.30
2023-04-30T03:42:19.559Z,9.40
2023-04-30T03:45:19.885Z,9.40
2023-04-30T03:48:07.951Z,9.40
2023-04-30T03:50:58.807Z,9.40
2023-04-30T03:53:56.506Z,9.50
2023-04-30T03:56:48.616Z,9.40
2023-04-30T03:59:44.225Z,9.50
2023-04-30T04:02:33.310Z,9.50
2023-04-30T04:05:24.010Z,9.60
2023-04-30T04:08:17.444Z,9.60
2023-04-30T04:11:07.316Z,9.70
2023-04-30T04:14:03.641Z,9.70
2023-04-30T04:16:53.253Z,9.80
2023-04-30T04:19:42.973Z,9.80
2023-04-30T04:22:31.306Z,9.90
2023-04-30T04:25:21.690Z,9.90
2023-04-30T04:28:18.531Z,10.00
2023-04-30T04:31:07.237Z,9.90
2023-04-30T04:33:59.615Z,10.00
2023-04-30T04:36:51.046Z,10.30
2023-04-30T04:39:39.027Z,10.70
2023-04-30T04:42:38.034Z,11.10
2023-04-30T04:45:31.145Z,11.90
2023-04-30T04:48:32.457Z,12.40
2023-04-30T04:51:27.314Z,13.00
2023-04-30T04:54:19.100Z,13.30
2023-04-30T04:57:14.959Z,13.90
2023-04-30T05:00:09.521Z,13.90
2023-04-30T05:06:07.101Z,15.00
2023-04-30T05:08:54.845Z,15.90
2023-04-30T05:11:44.028Z,16.40
2023-04-30T05:14:31.635Z,16.70
2023-04-30T05:17:19.756Z,15.50
2023-04-30T05:20:07.987Z,16.30
2023-04-30T05:22:55.745Z,16.80
2023-04-30T05:25:43.577Z,17.40
2023-04-30T05:28:31.425Z,17.30
2023-04-30T05:31:20.923Z,17.30
2023-04-30T05:34:08.950Z,17.10
2023-04-30T05:36:59.030Z,17.60
2023-04-30T05:39:57.451Z,18.30
2023-04-30T05:42:45.186Z,18.20
2023-04-30T05:45:33.377Z,18.70
2023-04-30T05:48:21.156Z,19.00
2023-04-30T05:51:10.798Z,19.00
2023-04-30T05:53:58.756Z,18.90
2023-04-30T05:56:46.317Z,19.10
2023-04-30T05:59:34.107Z,19.50
2023-04-30T06:02:21.858Z,20.20
2023-04-30T06:05:10.003Z,20.40
2023-04-30T06:07:57.816Z,20.10
2023-04-30T06:10:45.985Z,19.90
2023-04-30T06:13:33.731Z,19.10
2023-04-30T06:16:21.697Z,18.30
2023-04-30T06:19:10.231Z,17.90
2023-04-30T06:21:58.405Z,17.80
2023-04-30T06:24:47.126Z,18.30
2023-04-30T06:27:35.273Z,19.40
2023-04-30T06:30:22.894Z,19.80
2023-04-30T06:33:10.583Z,20.00
2023-04-30T06:35:58.557Z,19.90
2023-04-30T06:38:49.508Z,19.30
2023-04-30T06:41:37.259Z,19.50
2023-04-30T06:44:25.106Z,19.60
2023-04-30T06:47:15.153Z,20.40
2023-04-30T06:50:06.319Z,21.10
2023-04-30T06:52:54.057Z,20.80
2023-04-30T06:55:44.899Z,20.50
2023-04-30T06:58:34.138Z,20.70
2023-04-30T07:04:29.604Z,22.30
2023-04-30T07:07:27.442Z,22.10
2023-04-30T07:10:17.446Z,22.50
2023-04-30T07:13:10.718Z,21.60
2023-04-30T07:16:04.369Z,21.50
2023-04-30T07:19:02.550Z,21.40
2023-04-30T07:21:51.137Z,21.30
2023-04-30T07:24:45.270Z,21.40
2023-04-30T07:27:44.161Z,21.80
2023-04-30T07:30:37.024Z,23.40
2023-04-30T07:33:24.867Z,23.20
2023-04-30T07:36:17.190Z,22.80
2023-04-30T07:39:13.988Z,23.30
2023-04-30T07:42:24.645Z,24.50
2023-04-30T07:45:49.492Z,24.30
2023-04-30T07:48:42.976Z,24.70
2023-04-30T07:51:43.285Z,24.20
2023-04-30T07:54:39.434Z,23.90
2023-04-30T07:57:46.134Z,24.60
2023-04-30T08:00:42.545Z,24.10
2023-04-30T08:03:32.139Z,25.40
2023-04-30T08:06:36.064Z,26.00
2023-04-30T08:09:27.384Z,24.20
2023-04-30T08:12:23.022Z,24.40
2023-04-30T08:15:15.673Z,24.70
2023-04-30T08:18:06.887Z,24.00
2023-04-30T08:21:19.751Z,24.00
2023-04-30T08:24:13.917Z,23.60
2023-04-30T08:27:04.117Z,23.80
2023-04-30T08:29:56.434Z,24.60
2023-04-30T08:32:50.448Z,24.60
2023-04-30T08:35:40.455Z,24.70
2023-04-30T08:38:31.150Z,25.20
2023-04-30T08:41:27.106Z,25.10
2023-04-30T08:44:20.378Z,25.00
2023-04-30T08:47:14.796Z,24.70
2023-04-30T08:50:02.753Z,24.50
2023-04-30T08:52:52.104Z,23.60
2023-04-30T08:55:43.131Z,23.80
2023-04-30T08:58:31.232Z,23.90
2023-04-30T09:01:21.912Z,23.70
2023-04-30T09:04:11.831Z,24.30
2023-04-30T09:07:02.902Z,24.40
2023-04-30T09:09:55.358Z,24.80
2023-04-30T09:12:58.684Z,24.80
2023-04-30T09:15:52.516Z,25.60
2023-04-30T09:18:43.348Z,24.40
2023-04-30T09:21:36.292Z,25.00
2023-04-30T09:24:27.165Z,23.50
2023-04-30T09:27:23.473Z,23.80
2023-04-30T09:30:34.163Z,25.10
2023-04-30T09:37:00.021Z,25.80
2023-04-30T09:47:59.962Z,25.80
2023-04-30T09:51:08.774Z,25.40
2023-04-30T09:54:09.445Z,25.90
2023-04-30T09:57:04.409Z,27.20
2023-04-30T09:59:57.358Z,27.60
2023-04-30T10:02:48.177Z,27.10
2023-04-30T10:05:52.144Z,26.70
2023-04-30T10:09:12.137Z,26.20
2023-04-30T10:12:08.505Z,26.00
2023-04-30T10:15:13.428Z,26.30
2023-04-30T10:18:21.029Z,26.70
2023-04-30T10:21:15.707Z,26.60
2023-04-30T10:24:09.809Z,26.30
2023-04-30T10:26:59.088Z,27.00
2023-04-30T10:29:54.567Z,28.20
2023-04-30T10:33:20.457Z,27.60
2023-04-30T10:36:21.386Z,27.60
2023-04-30T10:39:20.228Z,27.10
2023-04-30T10:42:14.400Z,26.90
2023-04-30T10:45:04.138Z,26.20
2023-04-30T10:47:57.848Z,26.40
2023-04-30T10:50:50.624Z,26.40
2023-04-30T10:53:45.695Z,26.70
2023-04-30T10:56:37.304Z,27.40
2023-04-30T10:59:28.499Z,27.00
2023-04-30T11:02:20.624Z,27.20
2023-04-30T11:05:12.947Z,25.50
2023-04-30T11:08:03.740Z,26.00
2023-04-30T11:11:01.754Z,27.00
2023-04-30T11:14:04.495Z,26.60
2023-04-30T11:16:56.663Z,27.10
2023-04-30T11:19:50.111Z,27.40
2023-04-30T11:22:40.478Z,27.90
2023-04-30T11:25:43.477Z,26.80
2023-04-30T11:28:37.678Z,26.90
2023-04-30T11:31:37.301Z,28.90
2023-04-30T11:34:31.320Z,29.20
2023-04-30T11:37:33.477Z,28.10
2023-04-30T11:40:24.138Z,27.90
2023-04-30T11:43:32.002Z,28.10
2023-04-30T11:46:22.725Z,27.30
2023-04-30T11:49:12.712Z,27.60
2023-04-30T11:52:03.652Z,27.40
2023-04-30T11:54:57.892Z,28.90
2023-04-30T11:57:51.572Z,30.00
2023-04-30T12:00:43.609Z,29.20
2023-04-30T12:03:41.991Z,28.00
2023-04-30T12:06:33.229Z,28.20
2023-04-30T12:09:23.682Z,26.30
2023-04-30T12:12:14.167Z,28.00
2023-04-30T12:15:13.619Z,28.40
2023-04-30T12:18:13.544Z,27.90
2023-04-30T12:21:04.678Z,27.10
2023-04-30T12:23:55.401Z,28.00
2023-04-30T12:26:48.234Z,27.60
2023-04-30T12:29:48.780Z,28.20
2023-04-30T12:32:58.863Z,28.50
2023-04-30T12:35:48.421Z,27.50
2023-04-30T12:38:38.293Z,28.20
2023-04-30T12:41:31.000Z,28.70
2023-04-30T12:44:27.682Z,28.60
2023-04-30T12:47:18.745Z,29.00
2023-04-30T12:50:09.484Z,29.10
2023-04-30T12:53:05.747Z,28.60
2023-04-30T12:56:17.507Z,27.10
2023-04-30T12:59:18.147Z,27.30
2023-04-30T13:02:15.058Z,28.20
2023-04-30T13:05:04.033Z,27.50
2023-04-30T13:08:02.164Z,27.40
2023-04-30T13:10:55.476Z,28.30
2023-04-30T13:13:45.186Z,28.70
2023-04-30T13:16:35.740Z,29.90
2023-04-30T13:19:27.370Z,30.00
2023-04-30T13:22:17.662Z,28.60
2023-04-30T13:25:08.530Z,29.00
2023-04-30T13:27:58.336Z,29.00
2023-04-30T13:30:48.300Z,28.40
2023-04-30T13:33:40.053Z,29.50
2023-04-30T13:36:30.680Z,29.00
2023-04-30T13:39:22.118Z,29.50
2023-04-30T13:42:12.652Z,30.60
2023-04-30T13:45:01.976Z,30.00
2023-04-30T13:47:52.574Z,29.40
2023-04-30T13:50:42.310Z,29.20
2023-04-30T13:53:31.554Z,29.10
2023-04-30T13:56:22.809Z,28.10
2023-04-30T13:59:11.229Z,27.00
2023-04-30T14:01:58.916Z,26.30
2023-04-30T14:04:58.146Z,24.90
2023-04-30T14:07:56.351Z,25.80
2023-04-30T14:10:46.463Z,27.90
2023-04-30T14:13:38.238Z,28.40
2023-04-30T14:16:28.944Z,28.60
2023-04-30T14:19:19.666Z,28.30
2023-04-30T14:22:13.530Z,29.60
2023-04-30T14:25:02.707Z,27.40
2023-04-30T14:27:51.212Z,26.40
2023-04-30T14:30:38.912Z,25.10
2023-04-30T14:33:26.790Z,24.30
2023-04-30T14:36:14.592Z,24.60
2023-04-30T14:39:04.034Z,24.60
2023-04-30T14:41:52.316Z,24.20
2023-04-30T14:44:43.935Z,24.90
2023-04-30T14:47:34.432Z,26.40
2023-04-30T14:50:24.494Z,26.10
2023-04-30T14:53:13.351Z,25.80
2023-04-30T14:56:02.084Z,27.20
2023-04-30T14:58:54.152Z,27.20
2023-04-30T15:01:45.599Z,28.10
2023-04-30T15:04:35.285Z,28.00
2023-04-30T15:07:25.021Z,27.40
2023-04-30T15:10:13.110Z,26.80
2023-04-30T15:13:03.183Z,25.50
2023-04-30T15:15:50.974Z,24.10
2023-04-30T15:18:38.795Z,23.30
2023-04-30T15:21:29.915Z,22.90
2023-04-30T15:24:18.203Z,22.80
2023-04-30T15:27:05.932Z,22.50
2023-04-30T15:29:53.773Z,22.10
2023-04-30T15:32:41.673Z,21.50
2023-04-30T15:35:29.473Z,21.40
2023-04-30T15:38:17.301Z,21.50
2023-04-30T15:41:04.869Z,21.60
2023-04-30T15:43:52.548Z,21.60
2023-04-30T15:46:40.755Z,21.40
2023-04-30T15:49:30.602Z,20.80
2023-04-30T15:52:18.312Z,20.60
2023-04-30T15:55:06.340Z,20.80
2023-04-30T15:57:53.998Z,21.30
2023-04-30T16:00:41.890Z,21.50
2023-04-30T16:03:29.947Z,21.80
2023-04-30T16:06:17.998Z,23.00
2023-04-30T16:09:07.976Z,23.30
2023-04-30T16:11:56.822Z,23.60
2023-04-30T16:14:44.755Z,23.70
2023-04-30T16:17:35.044Z,23.90
2023-04-30T16:20:23.497Z,23.60
2023-04-30T16:23:11.332Z,23.80
2023-04-30T16:26:01.891Z,24.20
2023-04-30T16:28:49.626Z,24.10
2023-04-30T16:31:37.159Z,24.00
2023-04-30T16:34:24.903Z,24.10
2023-04-30T16:37:15.784Z,24.00
2023-04-30T16:40:03.732Z,24.20
2023-04-30T16:42:54.287Z,24.30
2023-04-30T16:45:42.428Z,24.20
2023-04-30T16:48:30.195Z,24.40
2023-04-30T16:51:18.032Z,24.10
2023-04-30T16:54:06.246Z,23.60
2023-04-30T16:56:54.035Z,22.90
2023-04-30T16:59:41.694Z,22.50
2023-04-30T17:02:29.355Z,22.10
2023-04-30T17:05:17.000Z,21.70
2023-04-30T17:08:05.596Z,21.50
2023-04-30T17:10:53.226Z,21.50
2023-04-30T17:13:40.762Z,21.40
2023-04-30T17:16:29.137Z,21.30
2023-04-30T17:19:18.020Z,21.10
2023-04-30T17:22:05.781Z,21.40
2023-04-30T17:24:53.754Z,21.50
2023-04-30T17:27:41.570Z,21.70
2023-04-30T17:30:29.368Z,21.20
2023-04-30T17:33:19.771Z,20.90
2023-04-30T17:36:09.287Z,20.60
2023-04-30T17:38:59.025Z,20.90
2023-04-30T17:41:46.965Z,20.70
2023-04-30T17:44:35.009Z,20.50
2023-04-30T17:47:23.310Z,20.50
2023-04-30T17:50:11.491Z,20.10
2023-04-30T17:53:02.413Z,20.30
2023-04-30T17:55:51.386Z,20.20
2023-04-30T17:58:40.126Z,20.30
2023-04-30T18:01:28.237Z,20.40
2023-04-30T18:04:20.556Z,19.90
2023-04-30T18:07:10.658Z,19.40
2023-04-30T18:10:06.063Z,19.10
2023-04-30T18:12:55.768Z,18.70
2023-04-30T18:15:46.061Z,18.60
2023-04-30T18:18:33.823Z,18.40
2023-04-30T18:21:21.515Z,18.20
2023-04-30T18:24:09.512Z,18.00
2023-04-30T18:26:57.212Z,18.00
2023-04-30T18:29:45.283Z,17.70
2023-04-30T18:32:33.161Z,17.50
2023-04-30T18:35:20.779Z,17.30
2023-04-30T18:38:08.511Z,17.20
2023-04-30T18:40:56.345Z,17.00
2023-04-30T18:43:44.949Z,16.90
2023-04-30T18:46:32.532Z,16.70
2023-04-30T18:49:20.058Z,16.50
2023-04-30T18:52:07.655Z,16.40
2023-04-30T18:54:55.866Z,16.30
2023-04-30T18:57:43.532Z,16.20
2023-04-30T19:00:31.179Z,16.20
2023-04-30T19:03:18.749Z,16.00
2023-04-30T19:06:06.606Z,15.90
2023-04-30T19:08:55.016Z,15.90
2023-04-30T19:11:44.092Z,15.70
2023-04-30T19:14:41.066Z,15.50
2023-04-30T19:17:28.584Z,15.50
2023-04-30T19:20:16.184Z,15.10
2023-04-30T19:23:05.759Z,14.90
2023-04-30T19:25:53.256Z,14.70
2023-04-30T19:28:40.813Z,14.70
2023-04-30T19:31:28.349Z,14.80
2023-04-30T19:34:16.596Z,14.60
2023-04-30T19:37:06.626Z,14.50
2023-04-30T19:42:56.287Z,14.40
2023-04-30T19:45:55.330Z,14.20
2023-04-30T19:48:45.944Z,14.10
2023-04-30T19:51:33.846Z,14.10
2023-04-30T19:54:21.784Z,14.00
2023-04-30T19:57:09.599Z,14.00
2023-04-30T20:00:01.662Z,13.90
2023-04-30T20:02:49.592Z,13.70
2023-04-30T20:05:39.248Z,13.70
2023-04-30T20:08:27.381Z,13.50
2023-04-30T20:11:14.867Z,13.50
2023-04-30T20:14:02.355Z,13.50
2023-04-30T20:16:54.606Z,13.40
2023-04-30T20:19:42.104Z,13.30
2023-04-30T20:22:29.947Z,13.10
2023-04-30T20:25:18.195Z,13.00
2023-04-30T20:28:06.382Z,13.00
2023-04-30T20:30:53.939Z,13.00
2023-04-30T20:33:42.292Z,13.10
2023-04-30T20:36:31.858Z,13.10
2023-04-30T20:39:19.334Z,13.00
2023-04-30T20:42:06.837Z,13.00
2023-04-30T20:44:55.250Z,13.00
2023-04-30T20:47:42.763Z,12.90
2023-04-30T20:50:30.344Z,12.80
2023-04-30T20:53:18.717Z,12.80
2023-04-30T20:56:06.771Z,12.70
2023-04-30T20:58:54.559Z,12.70
2023-04-30T21:01:42.231Z,12.70
2023-04-30T21:04:29.901Z,12.70
2023-04-30T21:07:17.659Z,12.70
2023-04-30T21:10:05.792Z,12.50
2023-04-30T21:12:53.418Z,12.50
2023-04-30T21:15:41.233Z,12.50
2023-04-30T21:18:28.899Z,12.50
2023-04-30T21:21:16.980Z,12.50
2023-04-30T21:24:05.230Z,12.50
2023-04-30T21:26:54.255Z,12.40
2023-04-30T21:29:44.865Z,12.40
2023-04-30T21:32:32.367Z,12.30
2023-04-30T21:35:22.433Z,12.20
2023-04-30T21:38:11.706Z,12.30
2023-04-30T21:40:59.199Z,12.30
2023-04-30T21:43:46.774Z,12.10
2023-04-30T21:46:34.357Z,12.00
2023-04-30T21:49:21.834Z,11.90
2023-04-30T21:52:09.394Z,11.90
2023-04-30T21:54:56.891Z,12.00
2023-04-30T21:57:47.284Z,11.90
2023-04-30T22:00:34.859Z,11.90
2023-04-30T22:03:22.373Z,11.80
2023-04-30T22:06:09.904Z,11.80
2023-04-30T22:08:57.343Z,11.90
2023-04-30T22:11:44.936Z,11.90
2023-04-30T22:14:32.456Z,12.10
2023-04-30T22:17:20.034Z,12.00
2023-04-30T22:20:08.615Z,12.10
2023-04-30T22:22:56.231Z,12.10
2023-04-30T22:25:43.862Z,12.10
2023-04-30T22:28:31.274Z,12.00
2023-04-30T22:31:18.930Z,12.10
2023-04-30T22:34:07.732Z,12.00
2023-04-30T22:36:55.181Z,12.10
2023-04-30T22:39:42.724Z,12.00
2023-04-30T22:42:30.338Z,12.10
2023-04-30T22:45:18.037Z,12.10
2023-04-30T22:48:06.447Z,12.30
2023-04-30T22:50:54.659Z,12.40
2023-04-30T22:53:42.150Z,12.30
2023-04-30T22:56:29.914Z,12.40
2023-04-30T22:59:17.404Z,12.30
2023-04-30T23:02:05.870Z,12.30
2023-04-30T23:04:53.524Z,12.30
2023-04-30T23:07:41.145Z,12.40
2023-04-30T23:10:28.587Z,12.40
2023-04-30T23:13:18.885Z,12.30
2023-04-30T23:16:09.089Z,12.40
2023-04-30T23:18:56.739Z,12.40
2023-04-30T23:21:44.226Z,12.40
2023-04-30T23:24:35.324Z,12.30
2023-04-30T23:27:23.936Z,12.30
2023-04-30T23:30:11.664Z,12.30
2023-04-30T23:32:59.146Z,12.40
2023-04-30T23:35:47.242Z,12.50
2023-04-30T23:38:34.717Z,12.40
2023-04-30T23:41:22.186Z,12.30
2023-04-30T23:44:09.703Z,12.30
2023-04-30T23:46:57.704Z,12.40
2023-04-30T23:49:46.264Z,12.30
2023-04-30T23:52:35.254Z,12.30
2023-04-30T23:55:22.666Z,12.20
2023-04-30T23:58:10.178Z,12.10
